createdAt,value
2018-10-02T00:01:45.098Z,79.60
2018-10-02T00:04:12.652Z,79.54
2018-10-02T00:06:40.167Z,80.25
2018-10-02T00:09:07.782Z,79.03
2018-10-02T00:11:35.293Z,79.59
2018-10-02T00:14:08.575Z,79.29
2018-10-02T00:16:36.078Z,79.06
2018-10-02T00:19:03.576Z,78.76
2018-10-02T00:21:31.120Z,78.59
2018-10-02T00:23:58.676Z,78.76
2018-10-02T00:26:26.254Z,78.53
2018-10-02T00:28:53.786Z,78.66
2018-10-02T00:31:21.422Z,77.97
2018-10-02T00:33:48.961Z,78.15
2018-10-02T00:36:16.542Z,78.44
2018-10-02T00:38:44.056Z,78.65
2018-10-02T00:41:11.611Z,78.84
2018-10-02T00:43:39.118Z,79.23
2018-10-02T00:46:06.774Z,78.86
2018-10-02T00:48:34.291Z,79.91
2018-10-02T00:51:01.868Z,79.74
2018-10-02T00:53:29.443Z,79.37
2018-10-02T00:55:57.224Z,79.21
2018-10-02T00:58:24.717Z,79.42
2018-10-02T01:00:52.249Z,79.48
2018-10-02T01:03:19.789Z,80.20
2018-10-02T01:05:47.333Z,79.64
2018-10-02T01:08:14.861Z,79.97
2018-10-02T01:10:42.366Z,80.06
2018-10-02T01:13:09.922Z,80.81
2018-10-02T01:15:37.465Z,80.20
2018-10-02T01:18:04.984Z,80.29
2018-10-02T01:20:32.501Z,79.99
2018-10-02T01:23:00.023Z,80.53
2018-10-02T01:25:27.569Z,80.73
2018-10-02T01:27:55.135Z,80.38
2018-10-02T01:30:22.662Z,80.85
2018-10-02T01:32:50.212Z,80.55
2018-10-02T01:35:17.779Z,80.93
2018-10-02T01:37:45.300Z,80.40
2018-10-02T01:40:12.860Z,80.63
2018-10-02T01:42:40.382Z,80.73
2018-10-02T01:45:07.903Z,80.42
2018-10-02T01:47:35.468Z,79.74
2018-10-02T01:50:02.965Z,79.98
2018-10-02T01:52:30.623Z,80.29
2018-10-02T01:54:58.117Z,79.92
2018-10-02T01:57:25.666Z,79.65
2018-10-02T01:59:53.164Z,79.70
2018-10-02T02:02:20.755Z,80.33
2018-10-02T02:04:48.251Z,80.74
2018-10-02T02:07:15.812Z,80.42
2018-10-02T02:09:43.351Z,80.49
2018-10-02T02:12:10.875Z,80.70
2018-10-02T02:14:38.401Z,80.24
2018-10-02T02:17:05.905Z,80.55
2018-10-02T02:19:33.468Z,80.41
2018-10-02T02:22:01.000Z,80.55
2018-10-02T02:24:28.548Z,81.29
2018-10-02T02:26:56.044Z,80.12
2018-10-02T02:29:23.592Z,81.01
2018-10-02T02:31:51.160Z,80.65
2018-10-02T02:34:18.668Z,81.57
2018-10-02T02:36:46.179Z,80.95
2018-10-02T02:39:13.709Z,80.47
2018-10-02T02:41:41.263Z,80.45
2018-10-02T02:44:08.780Z,79.45
2018-10-02T02:46:36.313Z,79.10
2018-10-02T02:49:20.463Z,79.70
2018-10-02T02:51:48.068Z,80.94
2018-10-02T02:54:15.573Z,80.49
2018-10-02T02:56:43.074Z,80.49
2018-10-02T02:59:10.638Z,80.31
2018-10-02T03:01:38.230Z,80.50
2018-10-02T03:04:05.738Z,80.42
2018-10-02T03:06:33.380Z,80.08
2018-10-02T03:09:00.946Z,80.44
2018-10-02T03:11:28.450Z,79.97
2018-10-02T03:13:56.020Z,81.10
2018-10-02T03:16:23.583Z,81.27
2018-10-02T03:18:51.133Z,80.39
2018-10-02T03:21:18.626Z,80.96
2018-10-02T03:23:46.141Z,80.12
2018-10-02T03:26:13.671Z,80.42
2018-10-02T03:28:41.222Z,80.03
2018-10-02T03:31:08.782Z,80.10
2018-10-02T03:33:36.418Z,79.95
2018-10-02T03:36:03.932Z,79.97
2018-10-02T03:38:31.496Z,79.73
2018-10-02T03:40:59.000Z,78.94
2018-10-02T03:43:26.546Z,78.99
2018-10-02T03:45:54.038Z,79.33
2018-10-02T03:48:21.622Z,79.77
2018-10-02T03:50:49.131Z,79.10
2018-10-02T03:53:16.645Z,79.98
2018-10-02T03:55:44.231Z,79.96
2018-10-02T03:58:11.743Z,79.03
2018-10-02T04:00:39.315Z,78.80
2018-10-02T04:03:06.853Z,79.43
2018-10-02T04:05:34.418Z,79.01
2018-10-02T04:08:02.009Z,79.98
2018-10-02T04:10:29.572Z,80.41
2018-10-02T04:12:57.133Z,79.53
2018-10-02T04:15:24.638Z,79.50
2018-10-02T04:17:52.231Z,79.25
2018-10-02T04:20:20.635Z,79.43
2018-10-02T04:22:48.195Z,79.41
2018-10-02T04:25:15.730Z,79.51
2018-10-02T04:27:43.323Z,80.21
2018-10-02T04:30:10.806Z,80.31
2018-10-02T04:32:38.394Z,80.56
2018-10-02T04:35:05.901Z,80.07
2018-10-02T04:37:33.427Z,79.32
2018-10-02T04:40:01.026Z,79.04
2018-10-02T04:42:28.628Z,79.41
2018-10-02T04:44:56.134Z,78.41
2018-10-02T04:47:23.691Z,78.38
2018-10-02T04:49:51.185Z,77.96
2018-10-02T04:52:18.744Z,77.92
2018-10-02T04:54:46.287Z,77.35
2018-10-02T04:57:13.852Z,77.60
2018-10-02T04:59:41.426Z,77.31
2018-10-02T05:02:08.987Z,77.70
2018-10-02T05:04:36.518Z,77.54
2018-10-02T05:07:04.077Z,77.11
2018-10-02T05:09:31.593Z,77.15
2018-10-02T05:11:59.145Z,77.56
2018-10-02T05:14:26.786Z,77.41
2018-10-02T05:16:54.817Z,77.24
2018-10-02T05:19:22.355Z,77.12
2018-10-02T05:21:49.908Z,76.38
2018-10-02T05:24:17.468Z,75.86
2018-10-02T05:26:44.979Z,76.47
2018-10-02T05:29:12.547Z,76.34
2018-10-02T05:31:40.083Z,75.91
2018-10-02T05:34:07.714Z,75.66
2018-10-02T05:36:35.268Z,75.50
2018-10-02T05:39:02.963Z,75.35
2018-10-02T05:41:30.719Z,75.46
2018-10-02T05:43:58.282Z,75.63
2018-10-02T05:46:25.953Z,75.14
2018-10-02T05:48:53.538Z,75.19
2018-10-02T05:51:21.050Z,75.74
2018-10-02T05:53:48.627Z,75.08
2018-10-02T05:56:16.132Z,75.25
2018-10-02T05:58:43.695Z,76.39
2018-10-02T06:01:11.249Z,75.95
2018-10-02T06:03:38.874Z,76.18
2018-10-02T06:06:06.405Z,76.31
2018-10-02T06:08:34.072Z,77.22
2018-10-02T06:11:01.599Z,78.19
2018-10-02T06:13:29.210Z,77.73
2018-10-02T06:15:56.997Z,78.30
2018-10-02T06:18:24.625Z,77.94
2018-10-02T06:20:52.300Z,77.65
2018-10-02T06:23:20.105Z,77.81
2018-10-02T06:25:47.669Z,78.23
2018-10-02T06:28:15.245Z,78.46
2018-10-02T06:30:42.758Z,78.34
2018-10-02T06:33:10.326Z,78.04
2018-10-02T06:35:37.868Z,78.67
2018-10-02T06:38:05.708Z,78.91
2018-10-02T06:40:33.229Z,78.81
2018-10-02T06:43:00.804Z,78.27
2018-10-02T06:45:28.360Z,78.79
2018-10-02T06:47:55.957Z,79.05
2018-10-02T06:50:23.495Z,78.17
2018-10-02T06:52:51.075Z,77.84
2018-10-02T06:55:18.589Z,78.86
2018-10-02T06:57:46.122Z,78.61
2018-10-02T07:00:13.715Z,78.73
2018-10-02T07:02:41.406Z,79.51
2018-10-02T07:05:08.960Z,79.67
2018-10-02T07:07:36.463Z,79.94
2018-10-02T07:10:04.028Z,79.21
2018-10-02T07:12:31.640Z,78.96
2018-10-02T07:14:59.369Z,79.47
2018-10-02T07:17:26.893Z,79.41
2018-10-02T07:19:54.592Z,79.53
2018-10-02T07:22:22.165Z,79.61
2018-10-02T07:24:49.666Z,79.34
2018-10-02T07:27:17.383Z,79.26
2018-10-02T07:29:44.838Z,79.42
2018-10-02T07:32:12.435Z,78.87
2018-10-02T07:34:39.969Z,78.69
2018-10-02T07:37:07.737Z,79.19
2018-10-02T07:39:35.322Z,79.39
2018-10-02T07:42:03.039Z,79.50
2018-10-02T07:44:30.633Z,79.21
2018-10-02T07:46:58.181Z,79.68
2018-10-02T07:49:25.764Z,80.04
2018-10-02T07:51:53.282Z,79.61
2018-10-02T07:54:20.869Z,79.83
2018-10-02T07:56:48.443Z,79.50
2018-10-02T07:59:16.006Z,80.68
2018-10-02T08:01:43.526Z,80.00
2018-10-02T08:04:11.088Z,80.86
2018-10-02T08:06:38.604Z,80.75
2018-10-02T08:09:06.151Z,81.45
2018-10-02T08:11:33.718Z,82.22
2018-10-02T08:14:01.229Z,82.25
2018-10-02T08:16:28.897Z,82.35
2018-10-02T08:18:56.450Z,82.98
2018-10-02T08:21:24.116Z,84.14
2018-10-02T08:23:51.666Z,82.98
2018-10-02T08:26:19.203Z,83.00
2018-10-02T08:28:46.820Z,83.47
2018-10-02T08:31:14.471Z,83.66
2018-10-02T08:33:41.997Z,82.98
2018-10-02T08:36:09.695Z,83.87
2018-10-02T08:38:37.158Z,84.35
2018-10-02T08:41:04.734Z,83.46
2018-10-02T08:43:32.318Z,84.57
2018-10-02T08:45:59.864Z,83.96
2018-10-02T08:48:27.395Z,83.62
2018-10-02T08:50:54.997Z,83.47
2018-10-02T08:53:22.573Z,83.98
2018-10-02T08:55:50.034Z,85.06
2018-10-02T08:58:17.584Z,84.67
2018-10-02T09:00:45.536Z,85.20
2018-10-02T09:03:13.136Z,84.78
2018-10-02T09:05:40.630Z,84.87
2018-10-02T09:08:08.170Z,85.38
2018-10-02T09:10:35.737Z,84.58
2018-10-02T09:13:03.358Z,84.98
2018-10-02T09:15:31.056Z,83.70
2018-10-02T09:17:58.801Z,84.31
2018-10-02T09:20:26.513Z,84.31
2018-10-02T09:22:54.066Z,84.48
2018-10-02T09:25:21.658Z,85.36
2018-10-02T09:27:49.326Z,84.99
2018-10-02T09:30:17.171Z,85.00
2018-10-02T09:32:50.313Z,84.80
2018-10-02T09:35:34.562Z,85.47
2018-10-02T09:38:07.562Z,85.62
2018-10-02T09:40:50.854Z,85.94
2018-10-02T09:43:18.425Z,85.68
2018-10-02T09:45:46.040Z,86.50
2018-10-02T09:48:13.558Z,86.41
2018-10-02T09:50:41.180Z,87.02
2018-10-02T09:53:08.661Z,87.05
2018-10-02T09:55:36.436Z,86.52
2018-10-02T09:58:04.089Z,86.25
2018-10-02T10:00:32.885Z,86.95
2018-10-02T10:03:00.472Z,87.01
2018-10-02T10:05:28.242Z,87.26
2018-10-02T10:07:56.108Z,87.47
2018-10-02T10:10:23.729Z,87.82
2018-10-02T10:12:51.287Z,87.37
2018-10-02T10:15:18.837Z,88.33
2018-10-02T10:17:46.352Z,88.57
2018-10-02T10:20:14.135Z,87.35
2018-10-02T10:22:41.828Z,88.25
2018-10-02T10:25:09.341Z,88.41
2018-10-02T10:27:36.917Z,88.18
2018-10-02T10:30:04.549Z,87.60
2018-10-02T10:32:32.120Z,87.94
2018-10-02T10:34:59.756Z,87.70
2018-10-02T10:37:27.235Z,88.35
2018-10-02T10:39:54.808Z,88.63
2018-10-02T10:42:22.370Z,88.49
2018-10-02T10:44:49.908Z,89.31
2018-10-02T10:47:17.466Z,89.40
2018-10-02T10:49:45.026Z,89.40
2018-10-02T10:52:12.601Z,89.20
2018-10-02T10:54:40.159Z,88.97
2018-10-02T10:57:07.801Z,88.96
2018-10-02T10:59:35.385Z,89.14
2018-10-02T11:02:02.922Z,88.81
2018-10-02T11:04:30.699Z,88.96
2018-10-02T11:06:58.314Z,88.69
2018-10-02T11:09:25.986Z,89.05
2018-10-02T11:11:53.473Z,89.50
2018-10-02T11:14:21.066Z,89.50
2018-10-02T11:16:48.707Z,89.64
2018-10-02T11:19:16.486Z,90.27
2018-10-02T11:21:44.471Z,90.47
2018-10-02T11:24:12.174Z,90.30
2018-10-02T11:26:39.935Z,90.28
2018-10-02T11:29:07.651Z,90.18
2018-10-02T11:31:35.294Z,89.66
2018-10-02T11:34:03.011Z,89.94
2018-10-02T11:36:30.770Z,89.51
2018-10-02T11:38:58.463Z,90.39
2018-10-02T11:41:26.214Z,90.63
2018-10-02T11:43:53.939Z,90.40
2018-10-02T11:46:21.930Z,90.45
2018-10-02T11:48:49.871Z,90.31
2018-10-02T11:51:17.597Z,90.33
2018-10-02T11:53:45.394Z,90.09
2018-10-02T11:56:13.262Z,89.81
2018-10-02T11:58:41.013Z,90.75
2018-10-02T12:01:08.747Z,91.05
2018-10-02T12:03:36.494Z,91.25
2018-10-02T12:06:04.149Z,91.26
2018-10-02T12:08:31.846Z,90.79
2018-10-02T12:10:59.576Z,90.56
2018-10-02T12:13:27.212Z,90.67
2018-10-02T12:15:54.982Z,89.79
2018-10-02T12:18:22.519Z,91.13
2018-10-02T12:20:50.196Z,91.34
2018-10-02T12:23:18.019Z,91.63
2018-10-02T12:25:45.641Z,91.29
2018-10-02T12:28:13.420Z,91.81
2018-10-02T12:30:41.182Z,91.32
2018-10-02T12:33:09.065Z,91.42
2018-10-02T12:35:36.687Z,91.62
2018-10-02T12:38:04.366Z,91.94
2018-10-02T12:40:32.243Z,91.55
2018-10-02T12:42:59.942Z,91.41
2018-10-02T12:45:27.590Z,91.21
2018-10-02T12:47:56.152Z,91.38
2018-10-02T12:50:23.924Z,91.31
2018-10-02T12:52:51.899Z,91.68
2018-10-02T12:55:19.535Z,91.49
2018-10-02T12:57:47.226Z,91.64
2018-10-02T13:00:14.847Z,91.21
2018-10-02T13:02:42.806Z,91.50
2018-10-02T13:05:10.593Z,91.93
2018-10-02T13:07:38.235Z,92.14
2018-10-02T13:10:06.056Z,91.91
2018-10-02T13:12:33.877Z,91.89
2018-10-02T13:15:01.468Z,91.88
2018-10-02T13:17:29.222Z,92.33
2018-10-02T13:19:57.009Z,92.25
2018-10-02T13:22:24.825Z,91.95
2018-10-02T13:24:52.744Z,91.69
2018-10-02T13:27:20.254Z,91.71
2018-10-02T13:29:47.768Z,91.80
2018-10-02T13:32:15.355Z,92.21
2018-10-02T13:34:42.997Z,92.00
2018-10-02T13:37:10.519Z,92.58
2018-10-02T13:39:38.041Z,92.07
2018-10-02T13:42:05.732Z,91.65
2018-10-02T13:44:33.276Z,91.65
2018-10-02T13:47:00.967Z,91.93
2018-10-02T13:49:28.569Z,92.03
2018-10-02T13:51:56.168Z,92.28
2018-10-02T13:54:23.710Z,92.29
2018-10-02T13:56:51.283Z,92.33
2018-10-02T13:59:18.833Z,92.75
2018-10-02T14:01:46.629Z,92.19
2018-10-02T14:04:14.177Z,92.41
2018-10-02T14:06:41.758Z,92.64
2018-10-02T14:09:09.347Z,92.60
2018-10-02T14:11:36.913Z,92.43
2018-10-02T14:14:04.483Z,92.75
2018-10-02T14:16:32.076Z,92.74
2018-10-02T14:18:59.666Z,92.30
2018-10-02T14:21:27.253Z,92.85
2018-10-02T14:23:54.766Z,92.41
2018-10-02T14:26:22.333Z,91.60
2018-10-02T14:28:49.892Z,92.23
2018-10-02T14:31:17.417Z,92.08
2018-10-02T14:33:45.108Z,92.48
2018-10-02T14:36:12.687Z,92.57
2018-10-02T14:38:40.274Z,92.56
2018-10-02T14:41:07.834Z,91.62
2018-10-02T14:43:35.358Z,91.43
2018-10-02T14:46:02.952Z,92.00
2018-10-02T14:48:30.508Z,91.79
2018-10-02T14:50:58.090Z,91.77
2018-10-02T14:53:25.683Z,92.06
2018-10-02T14:55:53.217Z,91.93
2018-10-02T14:58:20.788Z,91.71
2018-10-02T15:00:48.474Z,91.50
2018-10-02T15:03:16.066Z,91.36
2018-10-02T15:05:43.631Z,91.35
2018-10-02T15:08:11.308Z,90.84
2018-10-02T15:10:38.955Z,90.50
2018-10-02T15:13:06.550Z,90.21
2018-10-02T15:15:34.242Z,89.84
2018-10-02T15:18:01.792Z,89.41
2018-10-02T15:20:29.376Z,89.30
2018-10-02T15:22:57.136Z,88.93
2018-10-02T15:25:24.824Z,88.70
2018-10-02T15:27:52.418Z,88.65
2018-10-02T15:30:20.618Z,88.64
2018-10-02T15:32:48.156Z,87.93
2018-10-02T15:35:15.764Z,87.79
2018-10-02T15:37:43.373Z,87.98
2018-10-02T15:40:10.959Z,87.57
2018-10-02T15:42:38.486Z,87.47
2018-10-02T15:45:06.175Z,87.45
2018-10-02T15:47:33.794Z,87.43
2018-10-02T15:50:01.368Z,87.50
2018-10-02T15:52:28.988Z,87.91
2018-10-02T15:54:56.528Z,86.85
2018-10-02T15:57:24.102Z,87.74
2018-10-02T15:59:51.804Z,87.24
2018-10-02T16:02:19.403Z,87.91
2018-10-02T16:04:46.992Z,87.77
2018-10-02T16:07:14.565Z,87.62
2018-10-02T16:09:42.093Z,88.32
2018-10-02T16:12:09.688Z,88.35
2018-10-02T16:14:37.272Z,88.09
2018-10-02T16:17:04.799Z,88.21
2018-10-02T16:19:32.372Z,88.19
2018-10-02T16:22:00.141Z,88.60
2018-10-02T16:24:27.681Z,88.73
2018-10-02T16:26:55.294Z,88.87
2018-10-02T16:29:22.829Z,88.84
2018-10-02T16:31:50.391Z,88.95
2018-10-02T16:34:17.930Z,88.61
2018-10-02T16:36:45.560Z,88.88
2018-10-02T16:39:13.104Z,88.60
2018-10-02T16:41:40.695Z,88.81
2018-10-02T16:44:08.248Z,87.94
2018-10-02T16:46:35.892Z,87.68
2018-10-02T16:49:03.470Z,87.47
2018-10-02T16:51:31.045Z,87.13
2018-10-02T16:53:58.558Z,87.13
2018-10-02T16:56:26.355Z,87.25
2018-10-02T16:58:54.010Z,87.57
2018-10-02T17:01:21.519Z,87.16
2018-10-02T17:03:49.145Z,87.42
2018-10-02T17:06:16.670Z,86.76
2018-10-02T17:08:44.217Z,86.84
2018-10-02T17:11:11.804Z,86.78
2018-10-02T17:13:39.373Z,86.51
2018-10-02T17:16:06.892Z,86.70
2018-10-02T17:18:34.440Z,86.36
2018-10-02T17:21:02.228Z,86.64
2018-10-02T17:23:29.757Z,87.06
2018-10-02T17:25:57.330Z,86.66
2018-10-02T17:28:24.867Z,86.61
2018-10-02T17:30:52.493Z,86.38
2018-10-02T17:33:20.026Z,86.87
2018-10-02T17:35:47.611Z,86.87
2018-10-02T17:38:15.203Z,86.23
2018-10-02T17:40:42.767Z,86.90
2018-10-02T17:43:10.302Z,86.40
2018-10-02T17:45:37.847Z,86.00
2018-10-02T17:48:05.445Z,85.95
2018-10-02T17:50:33.044Z,85.95
2018-10-02T17:53:00.575Z,85.47
2018-10-02T17:55:28.114Z,85.08
2018-10-02T17:57:55.632Z,84.48
2018-10-02T18:00:23.225Z,84.70
2018-10-02T18:02:50.807Z,84.67
2018-10-02T18:05:18.376Z,84.52
2018-10-02T18:07:45.929Z,84.44
2018-10-02T18:10:13.494Z,84.12
2018-10-02T18:12:41.060Z,84.23
2018-10-02T18:15:08.597Z,84.15
2018-10-02T18:17:36.186Z,84.42
2018-10-02T18:20:03.724Z,84.31
2018-10-02T18:22:31.291Z,84.61
2018-10-02T18:24:58.885Z,84.29
2018-10-02T18:27:26.498Z,84.23
2018-10-02T18:29:54.007Z,84.10
2018-10-02T18:32:21.527Z,83.51
2018-10-02T18:34:49.340Z,83.30
2018-10-02T18:37:16.880Z,83.44
2018-10-02T18:39:44.468Z,82.98
2018-10-02T18:42:12.070Z,82.60
2018-10-02T18:44:39.750Z,82.19
2018-10-02T18:47:07.316Z,82.21
2018-10-02T18:49:34.837Z,81.87
2018-10-02T18:52:02.438Z,81.60
2018-10-02T18:54:30.183Z,81.90
2018-10-02T18:56:57.768Z,81.21
2018-10-02T18:59:25.344Z,80.93
2018-10-02T19:01:52.922Z,81.04
2018-10-02T19:04:20.754Z,80.63
2018-10-02T19:06:48.432Z,80.26
2018-10-02T19:09:15.993Z,80.17
2018-10-02T19:11:43.605Z,79.04
2018-10-02T19:14:11.119Z,78.27
2018-10-02T19:16:38.679Z,77.87
2018-10-02T19:19:06.328Z,77.73
2018-10-02T19:21:33.910Z,77.64
2018-10-02T19:24:01.471Z,76.89
2018-10-02T19:26:28.984Z,76.67
2018-10-02T19:28:56.617Z,77.15
2018-10-02T19:31:39.051Z,77.25
2018-10-02T19:34:06.590Z,77.08
2018-10-02T19:36:34.157Z,77.51
2018-10-02T19:39:01.688Z,76.71
2018-10-02T19:41:29.444Z,76.54
2018-10-02T19:43:57.003Z,76.79
2018-10-02T19:46:24.629Z,76.67
2018-10-02T19:48:52.240Z,76.80
2018-10-02T19:51:19.763Z,76.59
2018-10-02T19:53:47.575Z,76.68
2018-10-02T19:56:15.673Z,76.63
2018-10-02T19:58:43.663Z,76.61
2018-10-02T20:01:11.743Z,76.84
2018-10-02T20:03:39.314Z,76.43
2018-10-02T20:06:06.883Z,77.38
2018-10-02T20:08:34.395Z,77.06
2018-10-02T20:11:01.934Z,77.32
2018-10-02T20:13:29.553Z,77.14
2018-10-02T20:15:57.116Z,77.03
2018-10-02T20:18:24.669Z,76.53
2018-10-02T20:20:52.249Z,76.69
2018-10-02T20:23:19.781Z,76.51
2018-10-02T20:25:47.348Z,76.72
2018-10-02T20:28:14.894Z,76.57
2018-10-02T20:30:42.523Z,76.48
2018-10-02T20:33:10.035Z,76.31
2018-10-02T20:35:37.605Z,76.39
2018-10-02T20:38:05.290Z,76.49
2018-10-02T20:40:32.820Z,76.84
2018-10-02T20:43:00.408Z,76.84
2018-10-02T20:45:27.910Z,76.82
2018-10-02T20:47:55.464Z,76.59
2018-10-02T20:50:23.170Z,76.44
2018-10-02T20:52:50.740Z,76.58
2018-10-02T20:55:18.304Z,76.73
2018-10-02T20:57:45.870Z,76.70
2018-10-02T21:00:13.393Z,76.25
2018-10-02T21:02:40.959Z,76.61
2018-10-02T21:05:08.519Z,76.52
2018-10-02T21:07:36.246Z,76.33
2018-10-02T21:10:03.779Z,76.50
2018-10-02T21:12:31.300Z,76.07
2018-10-02T21:14:58.863Z,76.65
2018-10-02T21:17:26.429Z,76.96
2018-10-02T21:19:53.974Z,76.30
2018-10-02T21:22:21.715Z,77.35
2018-10-02T21:24:49.229Z,77.50
2018-10-02T21:27:16.749Z,77.34
2018-10-02T21:29:44.298Z,77.05
2018-10-02T21:32:11.823Z,77.08
2018-10-02T21:34:39.700Z,77.42
2018-10-02T21:37:07.163Z,77.87
2018-10-02T21:39:34.740Z,78.05
2018-10-02T21:42:02.238Z,78.23
2018-10-02T21:44:29.776Z,78.10
2018-10-02T21:46:57.368Z,78.24
2018-10-02T21:49:24.873Z,78.60
2018-10-02T21:51:52.445Z,79.22
2018-10-02T21:54:20.597Z,79.08
2018-10-02T21:56:48.116Z,78.87
2018-10-02T21:59:15.717Z,79.07
2018-10-02T22:01:43.393Z,78.83
2018-10-02T22:04:10.962Z,79.61
2018-10-02T22:06:38.713Z,79.47
2018-10-02T22:09:06.273Z,79.32
2018-10-02T22:11:33.858Z,79.18
2018-10-02T22:14:01.385Z,79.50
2018-10-02T22:16:28.922Z,79.04
2018-10-02T22:18:56.490Z,79.64
2018-10-02T22:21:24.128Z,79.82
2018-10-02T22:23:51.701Z,80.15
2018-10-02T22:26:19.217Z,79.79
2018-10-02T22:28:46.793Z,79.58
2018-10-02T22:31:14.371Z,80.11
2018-10-02T22:33:42.001Z,80.24
2018-10-02T22:36:09.498Z,80.40
2018-10-02T22:38:37.035Z,80.07
2018-10-02T22:41:04.555Z,79.91
2018-10-02T22:43:32.099Z,79.83
2018-10-02T22:45:59.661Z,80.58
2018-10-02T22:48:27.207Z,79.94
2018-10-02T22:50:54.758Z,79.35
2018-10-02T22:53:22.280Z,80.33
2018-10-02T22:55:49.835Z,80.11
2018-10-02T22:58:17.353Z,80.63
2018-10-02T23:00:44.986Z,80.34
2018-10-02T23:03:12.497Z,80.74
2018-10-02T23:05:40.229Z,79.89
2018-10-02T23:08:07.749Z,79.67
2018-10-02T23:10:35.305Z,80.08
2018-10-02T23:13:02.875Z,80.37
2018-10-02T23:15:30.452Z,80.06
2018-10-02T23:17:57.978Z,81.00
2018-10-02T23:20:25.501Z,80.44
2018-10-02T23:22:53.044Z,80.41
2018-10-02T23:25:20.772Z,80.85
2018-10-02T23:27:48.335Z,80.70
2018-10-02T23:30:15.879Z,80.52
2018-10-02T23:32:43.458Z,80.72
2018-10-02T23:35:11.039Z,80.79
2018-10-02T23:37:38.609Z,81.28
2018-10-02T23:40:06.206Z,81.63
2018-10-02T23:42:33.740Z,80.94
2018-10-02T23:45:01.257Z,80.76
2018-10-02T23:47:28.825Z,80.84
2018-10-02T23:49:56.368Z,80.95
2018-10-02T23:52:23.949Z,81.40
2018-10-02T23:54:51.487Z,81.39
2018-10-02T23:57:19.040Z,80.69
2018-10-02T23:59:46.762Z,81.55
